createdAt,value
2019-04-22T00:01:51.340Z,52.80
2019-04-22T00:04:34.106Z,53.18
2019-04-22T00:07:12.091Z,52.21
2019-04-22T00:09:49.924Z,54.89
2019-04-22T00:12:13.756Z,55.86
2019-04-22T00:14:33.961Z,56.35
2019-04-22T00:19:45.694Z,52.77
2019-04-22T00:22:10.477Z,52.34
2019-04-22T00:24:30.738Z,51.28
2019-04-22T00:27:05.269Z,51.26
2019-04-22T00:32:16.544Z,51.34
2019-04-22T00:34:43.776Z,52.40
2019-04-22T00:37:17.554Z,54.23
2019-04-22T00:42:15.289Z,58.20
2019-04-22T00:44:47.089Z,58.33
2019-04-22T00:47:12.607Z,58.19
2019-04-22T00:50:07.897Z,58.31
2019-04-22T00:52:10.828Z,57.73
2019-04-22T00:54:36.018Z,58.98
2019-04-22T00:57:02.791Z,60.36
2019-04-22T00:59:35.114Z,61.20
2019-04-22T01:02:00.714Z,61.76
2019-04-22T01:04:34.635Z,62.00
2019-04-22T01:07:01.519Z,62.13
2019-04-22T01:09:33.018Z,61.92
2019-04-22T01:11:53.720Z,61.43
2019-04-22T01:14:23.845Z,61.04
2019-04-22T01:16:55.133Z,60.77
2019-04-22T01:19:26.027Z,60.47
2019-04-22T01:21:52.448Z,60.01
2019-04-22T01:24:20.778Z,59.75
2019-04-22T01:26:43.506Z,57.07
2019-04-22T01:29:11.290Z,55.14
2019-04-22T01:31:30.879Z,58.15
2019-04-22T01:34:10.013Z,59.29
2019-04-22T01:36:43.070Z,60.55
2019-04-22T01:39:16.468Z,62.34
2019-04-22T01:41:55.149Z,63.06
2019-04-22T01:44:22.601Z,63.02
2019-04-22T01:46:47.691Z,63.75
2019-04-22T01:49:17.401Z,63.99
2019-04-22T01:51:54.664Z,64.07
2019-04-22T01:54:12.916Z,64.37
2019-04-22T01:56:43.130Z,64.34
2019-04-22T01:58:59.047Z,64.09
2019-04-22T02:01:37.169Z,63.64
2019-04-22T02:04:08.955Z,61.58
2019-04-22T02:06:35.089Z,61.23
2019-04-22T02:09:09.526Z,60.04
2019-04-22T02:12:06.426Z,58.46
2019-04-22T02:14:25.329Z,61.69
2019-04-22T02:16:50.330Z,62.61
2019-04-22T02:19:22.865Z,62.38
2019-04-22T02:21:47.024Z,63.22
2019-04-22T02:24:18.535Z,64.19
2019-04-22T02:26:40.468Z,63.99
2019-04-22T02:29:17.224Z,64.40
2019-04-22T02:31:45.294Z,64.86
2019-04-22T02:41:40.907Z,64.56
2019-04-22T02:44:13.893Z,64.96
2019-04-22T02:46:58.949Z,65.24
2019-04-22T02:49:11.193Z,64.55
2019-04-22T02:51:33.481Z,64.99
2019-04-22T02:56:34.132Z,66.40
2019-04-22T03:06:30.465Z,63.17
2019-04-22T03:09:01.284Z,65.08
2019-04-22T03:11:25.313Z,65.34
2019-04-22T03:13:55.106Z,64.83
2019-04-22T03:16:27.140Z,61.29
2019-04-22T03:18:57.252Z,59.01
2019-04-22T03:21:17.922Z,57.61
2019-04-22T03:23:55.690Z,56.78
2019-04-22T03:26:43.032Z,62.47
2019-04-22T03:35:09.729Z,65.57
2019-04-22T03:46:53.562Z,52.07
2019-04-22T03:49:30.863Z,54.52
2019-04-22T03:54:26.012Z,61.01
2019-04-22T03:59:22.130Z,54.52
2019-04-22T04:01:48.420Z,52.10
2019-04-22T04:06:50.195Z,55.88
2019-04-22T04:09:14.272Z,59.32
2019-04-22T04:11:45.656Z,61.94
2019-04-22T04:16:30.379Z,60.54
2019-04-22T04:19:07.083Z,62.21
2019-04-22T04:26:42.715Z,53.06
2019-04-22T04:36:29.934Z,50.66
2019-04-22T04:43:58.923Z,49.81
2019-04-22T04:46:24.831Z,49.22
2019-04-22T04:48:53.207Z,48.53
2019-04-22T04:53:41.328Z,51.89
2019-04-22T04:56:22.895Z,53.67
2019-04-22T05:01:17.510Z,53.48
2019-04-22T05:04:00.215Z,54.16
2019-04-22T05:06:07.474Z,52.54
2019-04-22T05:08:54.702Z,52.24
2019-04-22T05:13:39.991Z,53.84
2019-04-22T05:16:17.490Z,56.39
2019-04-22T05:18:29.417Z,58.28
2019-04-22T05:23:30.404Z,57.41
2019-04-22T05:25:51.318Z,55.07
2019-04-22T05:28:15.092Z,54.18
2019-04-22T05:30:45.820Z,53.18
2019-04-22T05:33:18.359Z,51.40
2019-04-22T05:35:46.436Z,51.49
2019-04-22T05:40:34.792Z,52.14
2019-04-22T05:43:09.366Z,53.53
2019-04-22T05:45:38.662Z,52.21
2019-04-22T05:48:30.512Z,50.57
2019-04-22T05:50:39.353Z,46.20
2019-04-22T05:53:00.470Z,45.53
2019-04-22T05:55:36.342Z,43.60
2019-04-22T05:58:02.901Z,44.50
2019-04-22T06:00:47.597Z,46.60
2019-04-22T06:03:07.197Z,45.98
2019-04-22T06:05:47.363Z,48.86
2019-04-22T06:08:20.224Z,48.99
2019-04-22T06:10:53.376Z,47.83
2019-04-22T06:13:14.573Z,47.37
2019-04-22T06:15:44.117Z,44.34
2019-04-22T06:18:22.745Z,43.28
2019-04-22T06:20:56.960Z,40.35
2019-04-22T06:23:24.173Z,38.93
2019-04-22T06:25:57.511Z,38.36
2019-04-22T06:28:24.480Z,38.57
2019-04-22T06:30:50.348Z,38.68
2019-04-22T06:33:18.796Z,38.23
2019-04-22T06:35:56.338Z,37.02
2019-04-22T06:38:28.635Z,35.52
2019-04-22T06:40:39.106Z,33.10
2019-04-22T06:43:08.783Z,31.17
2019-04-22T06:45:36.610Z,31.13
2019-04-22T06:48:07.048Z,30.03
2019-04-22T06:50:40.477Z,29.49
2019-04-22T06:53:06.788Z,27.88
2019-04-22T06:55:35.731Z,27.84
2019-04-22T06:58:01.504Z,28.47
2019-04-22T07:00:32.414Z,28.08
2019-04-22T07:03:23.278Z,28.02
2019-04-22T07:05:28.059Z,26.79
2019-04-22T07:12:49.220Z,25.78
2019-04-22T07:15:40.198Z,24.63
2019-04-22T07:17:58.166Z,26.03
2019-04-22T07:20:17.419Z,25.51
2019-04-22T07:22:45.411Z,25.90
2019-04-22T07:25:32.798Z,25.91
2019-04-22T07:27:49.963Z,25.91
2019-04-22T07:30:16.994Z,25.76
2019-04-22T07:35:16.896Z,25.81
2019-04-22T07:37:41.856Z,23.72
2019-04-22T07:40:03.666Z,25.24
2019-04-22T07:42:36.906Z,25.01
2019-04-22T07:45:05.282Z,22.43
2019-04-22T07:50:09.717Z,21.23
2019-04-22T07:54:58.510Z,20.18
2019-04-22T08:00:03.010Z,19.75
2019-04-22T08:02:35.539Z,20.12
2019-04-22T08:07:24.214Z,20.28
2019-04-22T08:10:00.115Z,23.68
2019-04-22T08:12:20.199Z,21.20
2019-04-22T08:17:43.475Z,19.43
2019-04-22T08:19:50.654Z,20.06
2019-04-22T08:22:14.393Z,19.46
2019-04-22T08:27:10.322Z,19.97
2019-04-22T08:29:53.485Z,19.05
2019-04-22T08:32:28.498Z,18.83
2019-04-22T08:34:37.042Z,17.99
2019-04-22T08:39:38.555Z,18.33
2019-04-22T08:41:58.784Z,17.19
2019-04-22T08:44:52.124Z,16.85
2019-04-22T08:47:17.760Z,17.10
2019-04-22T08:49:39.081Z,15.83
2019-04-22T08:52:01.035Z,14.38
2019-04-22T08:54:33.958Z,14.54
2019-04-22T08:56:58.293Z,14.09
2019-04-22T08:59:22.114Z,16.26
2019-04-22T09:01:51.936Z,16.17
2019-04-22T09:04:20.537Z,15.65
2019-04-22T09:07:10.472Z,15.90
2019-04-22T09:09:24.925Z,17.42
2019-04-22T09:11:57.834Z,15.11
2019-04-22T09:14:15.698Z,14.00
2019-04-22T09:16:49.870Z,12.89
2019-04-22T09:19:15.032Z,13.99
2019-04-22T09:21:45.506Z,13.95
2019-04-22T09:24:16.631Z,12.55
2019-04-22T09:26:41.786Z,14.15
2019-04-22T09:29:17.985Z,12.12
2019-04-22T09:31:42.317Z,12.09
2019-04-22T09:34:06.464Z,12.24
2019-04-22T09:36:33.808Z,11.34
2019-04-22T09:39:06.570Z,11.90
2019-04-22T09:41:36.776Z,12.85
2019-04-22T09:46:37.516Z,10.79
2019-04-22T09:51:25.318Z,9.07
2019-04-22T09:54:01.175Z,9.85
2019-04-22T09:58:56.991Z,9.00
2019-04-22T10:01:39.023Z,9.47
2019-04-22T10:03:56.358Z,10.67
2019-04-22T10:06:33.565Z,10.66
2019-04-22T10:09:01.780Z,9.11
2019-04-22T10:11:21.074Z,9.59
2019-04-22T10:13:47.995Z,10.87
2019-04-22T10:16:18.536Z,9.71
2019-04-22T10:18:49.031Z,11.35
2019-04-22T10:21:16.555Z,11.48
2019-04-22T10:26:15.979Z,10.35
2019-04-22T10:28:44.592Z,10.24
2019-04-22T10:31:10.001Z,8.76
2019-04-22T10:33:34.199Z,8.25
2019-04-22T10:35:39.532Z,8.47
2019-04-22T10:38:06.338Z,9.39
2019-04-22T10:40:34.615Z,9.66
2019-04-22T10:43:01.521Z,9.30
2019-04-22T10:45:30.238Z,9.45
2019-04-22T10:47:58.339Z,10.38
2019-04-22T10:50:50.642Z,11.28
2019-04-22T10:53:17.814Z,11.97
2019-04-22T10:55:47.761Z,12.15
2019-04-22T10:58:15.055Z,11.66
2019-04-22T11:00:43.357Z,12.62
2019-04-22T11:03:33.053Z,11.81
2019-04-22T11:06:01.256Z,11.29
2019-04-22T11:08:34.560Z,10.79
2019-04-22T11:11:10.657Z,10.42
2019-04-22T11:13:26.120Z,9.44
2019-04-22T11:15:53.118Z,10.01
2019-04-22T11:18:19.949Z,12.41
2019-04-22T11:20:47.400Z,12.90
2019-04-22T11:23:14.683Z,11.05
2019-04-22T11:25:41.669Z,12.66
2019-04-22T11:28:09.767Z,11.04
2019-04-22T11:30:36.837Z,10.71
2019-04-22T11:33:04.548Z,11.11
2019-04-22T11:35:32.050Z,10.44
2019-04-22T11:37:59.239Z,9.76
2019-04-22T11:40:36.162Z,10.12
2019-04-22T11:42:56.401Z,10.85
2019-04-22T11:45:23.802Z,12.04
2019-04-22T11:47:51.100Z,12.78
2019-04-22T11:50:19.578Z,13.18
2019-04-22T11:52:47.165Z,14.00
2019-04-22T11:55:14.955Z,13.81
2019-04-22T11:57:43.069Z,13.42
2019-04-22T12:00:12.702Z,12.20
2019-04-22T12:02:40.959Z,13.19
2019-04-22T12:05:11.968Z,12.08
2019-04-22T12:07:40.942Z,13.16
2019-04-22T12:10:17.870Z,13.37
2019-04-22T12:12:37.153Z,14.37
2019-04-22T12:15:06.299Z,12.75
2019-04-22T12:17:33.886Z,14.21
2019-04-22T12:20:03.706Z,12.78
2019-04-22T12:22:29.489Z,12.51
2019-04-22T12:24:56.728Z,12.40
2019-04-22T12:27:24.838Z,12.65
2019-04-22T12:29:53.162Z,13.33
2019-04-22T12:32:21.304Z,15.86
2019-04-22T12:34:49.315Z,14.08
2019-04-22T12:37:25.807Z,13.23
2019-04-22T12:39:45.369Z,11.77
2019-04-22T12:42:13.162Z,12.71
2019-04-22T12:44:42.050Z,15.59
2019-04-22T12:47:11.006Z,16.41
2019-04-22T12:49:40.473Z,15.00
2019-04-22T12:52:07.306Z,17.35
2019-04-22T12:54:35.130Z,15.25
2019-04-22T12:57:02.003Z,14.74
2019-04-22T12:59:29.979Z,14.68
2019-04-22T13:01:58.499Z,12.92
2019-04-22T13:04:25.411Z,16.45
2019-04-22T13:06:53.469Z,15.85
2019-04-22T13:09:21.249Z,15.42
2019-04-22T13:11:48.968Z,15.05
2019-04-22T13:14:16.808Z,14.73
2019-04-22T13:16:44.885Z,14.73
2019-04-22T13:19:15.233Z,12.53
2019-04-22T13:21:40.756Z,12.37
2019-04-22T13:24:08.996Z,13.05
2019-04-22T13:26:36.013Z,14.37
2019-04-22T13:29:03.240Z,13.46
2019-04-22T13:31:30.894Z,13.01
2019-04-22T13:34:01.710Z,12.69
2019-04-22T13:36:27.927Z,12.89
2019-04-22T13:38:55.337Z,12.98
2019-04-22T13:41:33.027Z,12.05
2019-04-22T13:43:53.787Z,11.55
2019-04-22T13:46:21.941Z,13.28
2019-04-22T13:49:17.201Z,13.73
2019-04-22T13:51:52.573Z,12.43
2019-04-22T13:54:43.750Z,13.22
2019-04-22T13:56:38.816Z,14.55
2019-04-22T13:58:56.373Z,15.02
2019-04-22T14:01:16.468Z,13.69
2019-04-22T14:04:12.451Z,15.32
2019-04-22T14:06:40.703Z,14.15
2019-04-22T14:09:07.686Z,16.31
2019-04-22T14:11:43.918Z,14.47
2019-04-22T14:14:05.092Z,15.38
2019-04-22T14:16:33.147Z,14.59
2019-04-22T14:19:00.251Z,14.29
2019-04-22T14:21:27.256Z,14.10
2019-04-22T14:23:54.034Z,15.67
2019-04-22T14:26:20.854Z,15.85
2019-04-22T14:29:08.074Z,16.87
2019-04-22T14:31:36.234Z,15.29
2019-04-22T14:34:05.856Z,15.16
2019-04-22T14:36:33.082Z,14.36
2019-04-22T14:38:59.990Z,15.84
2019-04-22T14:41:42.612Z,14.76
2019-04-22T14:45:02.598Z,14.11
2019-04-22T14:47:00.386Z,12.12
2019-04-22T14:49:19.445Z,12.56
2019-04-22T14:51:46.427Z,11.92
2019-04-22T14:54:07.203Z,13.64
2019-04-22T14:56:20.164Z,13.87
2019-04-22T14:58:47.244Z,15.23
2019-04-22T15:01:14.872Z,14.71
2019-04-22T15:03:43.996Z,15.12
2019-04-22T15:06:10.675Z,14.82
2019-04-22T15:08:37.492Z,14.89
2019-04-22T15:11:06.234Z,14.78
2019-04-22T15:13:33.550Z,13.87
2019-04-22T15:16:18.366Z,14.35
2019-04-22T15:19:07.690Z,15.53
2019-04-22T15:21:34.886Z,15.19
2019-04-22T15:24:20.582Z,14.32
2019-04-22T15:26:48.458Z,13.88
2019-04-22T15:29:15.598Z,13.29
2019-04-22T15:31:42.593Z,14.25
2019-04-22T15:34:10.259Z,14.37
2019-04-22T15:36:37.845Z,14.51
2019-04-22T15:39:07.246Z,15.09
2019-04-22T15:41:34.653Z,15.84
2019-04-22T15:44:21.941Z,14.32
2019-04-22T15:47:09.124Z,15.88
2019-04-22T15:49:36.073Z,15.26
2019-04-22T15:52:05.731Z,15.59
2019-04-22T15:54:31.984Z,16.24
2019-04-22T15:56:59.192Z,17.08
2019-04-22T15:59:44.484Z,16.00
2019-04-22T16:01:58.105Z,16.59
2019-04-22T16:04:23.226Z,15.99
2019-04-22T16:06:50.029Z,16.33
2019-04-22T16:09:17.362Z,18.15
2019-04-22T16:11:45.716Z,18.58
2019-04-22T16:14:15.119Z,17.47
2019-04-22T16:16:43.045Z,17.43
2019-04-22T16:19:09.915Z,17.96
2019-04-22T16:21:45.515Z,18.39
2019-04-22T16:24:14.342Z,18.90
2019-04-22T16:26:48.548Z,19.39
2019-04-22T16:29:16.448Z,19.74
2019-04-22T16:31:43.429Z,19.95
2019-04-22T16:34:11.353Z,19.24
2019-04-22T16:36:38.810Z,19.54
2019-04-22T16:39:08.992Z,19.94
2019-04-22T16:41:37.119Z,19.67
2019-04-22T16:44:06.754Z,20.50
2019-04-22T16:46:33.866Z,21.12
2019-04-22T16:49:01.420Z,21.70
2019-04-22T16:51:29.710Z,23.22
2019-04-22T16:53:57.864Z,23.57
2019-04-22T16:56:24.912Z,24.49
2019-04-22T16:58:52.671Z,25.13
2019-04-22T17:01:48.482Z,24.59
2019-04-22T17:04:34.725Z,24.56
2019-04-22T17:07:01.871Z,25.23
2019-04-22T17:09:29.872Z,25.58
2019-04-22T17:11:58.074Z,25.15
2019-04-22T17:14:32.765Z,25.82
2019-04-22T17:16:54.754Z,26.06
2019-04-22T17:19:21.787Z,25.90
2019-04-22T17:21:49.849Z,26.10
2019-04-22T17:24:19.500Z,26.46
2019-04-22T17:26:46.604Z,26.52
2019-04-22T17:29:14.505Z,26.39
2019-04-22T17:31:50.265Z,26.75
2019-04-22T17:34:11.529Z,27.18
2019-04-22T17:36:38.427Z,27.00
2019-04-22T17:39:24.704Z,27.55
2019-04-22T17:41:55.757Z,27.51
2019-04-22T17:44:38.108Z,27.43
2019-04-22T17:46:58.908Z,28.08
2019-04-22T17:49:51.768Z,28.38
2019-04-22T17:54:49.259Z,29.25
2019-04-22T17:57:18.649Z,29.27
2019-04-22T17:59:41.831Z,29.97
2019-04-22T18:02:13.358Z,30.19
2019-04-22T18:04:23.405Z,30.36
2019-04-22T18:07:20.356Z,30.50
2019-04-22T18:10:14.270Z,31.03
2019-04-22T18:12:12.238Z,31.41
2019-04-22T18:17:07.305Z,31.45
2019-04-22T18:19:31.710Z,31.97
2019-04-22T18:21:58.806Z,32.59
2019-04-22T18:24:20.112Z,32.40
2019-04-22T18:26:57.852Z,32.58
2019-04-22T18:29:31.051Z,33.02
2019-04-22T18:31:47.555Z,33.30
2019-04-22T18:34:21.279Z,33.41
2019-04-22T18:36:52.038Z,33.39
2019-04-22T18:39:28.542Z,33.44
2019-04-22T18:41:51.915Z,33.87
2019-04-22T18:44:27.200Z,33.76
2019-04-22T18:46:54.981Z,33.93
2019-04-22T18:49:24.448Z,33.54
2019-04-22T18:52:01.101Z,34.02
2019-04-22T18:55:04.123Z,34.08
2019-04-22T18:57:42.716Z,34.05
2019-04-22T19:00:02.599Z,34.22
2019-04-22T19:02:30.560Z,34.33
2019-04-22T19:05:09.818Z,34.45
2019-04-22T19:07:54.885Z,34.83
2019-04-22T19:10:17.460Z,35.19
2019-04-22T19:13:00.659Z,35.30
2019-04-22T19:15:22.657Z,35.59
2019-04-22T19:17:46.334Z,35.73
2019-04-22T19:20:15.278Z,36.02
2019-04-22T19:22:48.462Z,36.17
2019-04-22T19:24:59.993Z,36.57
2019-04-22T19:27:36.065Z,36.51
2019-04-22T19:30:13.804Z,36.67
2019-04-22T19:32:39.986Z,36.60
2019-04-22T19:34:57.377Z,36.83
2019-04-22T19:37:28.471Z,37.03
2019-04-22T19:40:09.997Z,37.28
2019-04-22T19:42:38.734Z,37.18
2019-04-22T19:44:55.279Z,37.30
2019-04-22T19:47:30.332Z,37.06
2019-04-22T19:50:05.939Z,37.13
2019-04-22T19:52:29.260Z,36.85
2019-04-22T19:54:55.032Z,36.93
2019-04-22T19:57:17.392Z,36.74
2019-04-22T19:59:50.868Z,36.95
2019-04-22T20:02:42.314Z,36.69
2019-04-22T20:05:26.696Z,36.76
2019-04-22T20:07:41.727Z,36.93
2019-04-22T20:10:20.738Z,37.00
2019-04-22T20:12:42.884Z,37.21
2019-04-22T20:15:13.825Z,37.43
2019-04-22T20:18:07.276Z,37.37
2019-04-22T20:20:17.427Z,37.57
2019-04-22T20:22:37.225Z,37.42
2019-04-22T20:24:56.446Z,37.66
2019-04-22T20:27:39.298Z,37.65
2019-04-22T20:30:10.021Z,37.85
2019-04-22T20:32:31.037Z,37.99
2019-04-22T20:35:14.101Z,38.03
2019-04-22T20:37:41.088Z,38.04
2019-04-22T20:40:02.429Z,38.21
2019-04-22T20:45:05.706Z,38.10
2019-04-22T20:47:21.721Z,38.21
2019-04-22T20:50:01.915Z,38.24
2019-04-22T20:52:36.681Z,38.39
2019-04-22T20:54:55.941Z,38.25
2019-04-22T20:57:24.118Z,38.38
2019-04-22T20:59:49.861Z,37.56
2019-04-22T21:02:15.282Z,37.46
2019-04-22T21:04:41.384Z,37.58
2019-04-22T21:07:16.752Z,37.38
2019-04-22T21:09:43.246Z,37.39
2019-04-22T21:12:09.023Z,37.17
2019-04-22T21:14:52.852Z,37.39
2019-04-22T21:17:13.055Z,37.72
2019-04-22T21:19:47.975Z,37.83
2019-04-22T21:22:18.122Z,37.99
2019-04-22T21:24:34.740Z,38.00
2019-04-22T21:27:13.866Z,38.24
2019-04-22T21:29:34.705Z,38.43
2019-04-22T21:32:07.854Z,38.74
2019-04-22T21:34:32.015Z,38.74
2019-04-22T21:37:07.962Z,38.80
2019-04-22T21:39:26.314Z,39.19
2019-04-22T21:42:03.427Z,39.04
2019-04-22T21:44:25.944Z,39.66
2019-04-22T21:47:08.646Z,39.54
2019-04-22T21:49:32.527Z,40.26
2019-04-22T21:51:53.804Z,40.61
2019-04-22T21:54:28.615Z,41.31
2019-04-22T21:57:19.995Z,41.59
2019-04-22T21:59:34.272Z,41.22
2019-04-22T22:02:13.877Z,41.46
2019-04-22T22:04:36.373Z,42.33
2019-04-22T22:06:55.291Z,42.58
2019-04-22T22:09:37.679Z,43.19
2019-04-22T22:12:05.239Z,43.52
2019-04-22T22:14:31.673Z,44.09
2019-04-22T22:16:53.385Z,43.81
2019-04-22T22:19:28.728Z,43.47
2019-04-22T22:22:13.577Z,44.29
2019-04-22T22:24:35.879Z,43.68
2019-04-22T22:26:55.575Z,44.00
2019-04-22T22:29:36.800Z,44.64
2019-04-22T22:31:58.094Z,44.84
2019-04-22T22:34:22.311Z,45.17
2019-04-22T22:36:46.468Z,45.74
2019-04-22T22:39:14.094Z,45.98
2019-04-22T22:41:29.968Z,46.54
2019-04-22T22:44:06.855Z,46.73
2019-04-22T22:46:34.131Z,46.37
2019-04-22T22:49:18.558Z,47.29
2019-04-22T22:51:57.363Z,46.74
2019-04-22T22:54:17.606Z,46.74
2019-04-22T22:56:47.461Z,47.11
2019-04-22T22:59:11.178Z,46.85
2019-04-22T23:01:40.783Z,47.37
2019-04-22T23:04:09.930Z,47.00
2019-04-22T23:06:40.684Z,47.33
2019-04-22T23:09:04.150Z,47.54
2019-04-22T23:11:52.423Z,48.61
2019-04-22T23:14:05.377Z,49.06
2019-04-22T23:16:17.635Z,49.34
2019-04-22T23:18:57.603Z,49.79
2019-04-22T23:21:31.395Z,49.24
2019-04-22T23:24:12.412Z,48.80
2019-04-22T23:26:41.998Z,49.14
2019-04-22T23:29:10.440Z,48.83
2019-04-22T23:31:41.983Z,48.46
2019-04-22T23:34:18.196Z,48.74
2019-04-22T23:37:10.461Z,48.98
2019-04-22T23:39:52.228Z,48.62
2019-04-22T23:42:18.927Z,48.94
2019-04-22T23:44:46.982Z,49.54
2019-04-22T23:47:27.203Z,49.21
2019-04-22T23:49:56.506Z,49.63
2019-04-22T23:52:30.614Z,49.94
2019-04-22T23:55:06.869Z,50.00
2019-04-22T23:57:34.824Z,49.83
